Time;durP1;ratioP1;P1;durP2;ratioP2;P2;SDS_P1;SDS_P2;PMS_P1;PMS_P2;Temp;Humidity;BMP_temperature;BMP_pressure;BME280_temperature;BME280_humidity;BME280_pressure;Samples;Min_cycle;Max_cycle;Signal;HPM_P1;HPM_P2
2022/05/04 00:01:32;;;;;;;8.60;5.03;;;10.10;99.90;;;;;;4972122;28;20178;-73
2022/05/04 00:03:58;;;;;;;11.80;4.70;;;10.00;99.90;;;;;;4972207;28;20188;-73
2022/05/04 00:06:26;;;;;;;9.97;4.97;;;10.00;99.90;;;;;;4969953;28;20179;-72
2022/05/04 00:08:52;;;;;;;14.70;4.90;;;10.00;99.90;;;;;;4970513;28;20248;-73
2022/05/04 00:11:17;;;;;;;9.37;4.67;;;9.90;99.90;;;;;;4970693;28;20206;-73
2022/05/04 00:13:43;;;;;;;7.17;4.90;;;9.80;99.90;;;;;;4970678;28;20179;-73
2022/05/04 00:16:08;;;;;;;10.73;4.47;;;9.80;99.90;;;;;;4971793;28;20170;-73
2022/05/04 00:18:34;;;;;;;13.33;5.10;;;9.80;99.90;;;;;;4971899;28;20289;-73
2022/05/04 00:20:59;;;;;;;9.63;4.70;;;9.80;99.90;;;;;;4971789;28;20231;-73
2022/05/04 00:23:25;;;;;;;6.97;4.53;;;9.80;99.90;;;;;;4971659;28;20178;-73
2022/05/04 00:25:51;;;;;;;10.20;4.70;;;9.70;99.90;;;;;;4970373;28;20178;-73
2022/05/04 00:28:17;;;;;;;6.03;4.40;;;9.70;99.90;;;;;;4971333;28;20267;-73
2022/05/04 00:30:43;;;;;;;9.00;5.07;;;9.70;99.90;;;;;;4970363;28;20265;-73
2022/05/04 00:33:09;;;;;;;8.73;4.87;;;9.60;99.90;;;;;;4972107;28;20177;-73
2022/05/04 00:35:34;;;;;;;9.90;4.83;;;9.60;99.90;;;;;;4971535;28;20170;-73
2022/05/04 00:38:00;;;;;;;9.70;4.73;;;9.60;99.90;;;;;;4971528;28;20555;-73
2022/05/04 00:40:26;;;;;;;10.73;5.43;;;9.50;99.90;;;;;;4971326;28;20252;-72
2022/05/04 00:42:51;;;;;;;7.97;4.90;;;9.50;99.90;;;;;;4970155;28;20175;-73
2022/05/04 00:45:17;;;;;;;9.00;4.80;;;9.50;99.90;;;;;;4971628;28;20239;-73
2022/05/04 00:47:42;;;;;;;8.57;4.17;;;9.50;99.90;;;;;;4971253;28;20175;-73
2022/05/04 00:50:09;;;;;;;6.97;4.40;;;9.40;99.90;;;;;;4969978;28;20194;-73
2022/05/04 00:52:37;;;;;;;9.07;4.77;;;9.30;99.90;;;;;;4971354;28;20206;-73
2022/05/04 00:55:06;;;;;;;10.37;4.60;;;9.30;99.90;;;;;;4971349;28;20257;-72
2022/05/04 01:00:19;;;;;;;12.73;5.03;;;9.20;99.90;;;;;;4971719;28;20200;-72
2022/05/04 01:02:44;;;;;;;9.73;4.63;;;9.20;99.90;;;;;;4971174;28;20166;-72
2022/05/04 01:05:11;;;;;;;9.70;4.40;;;9.20;99.90;;;;;;4969877;28;20670;-72
2022/05/04 01:07:40;;;;;;;7.83;4.70;;;9.10;99.90;;;;;;4971114;28;20671;-73
2022/05/04 01:10:08;;;;;;;6.73;4.40;;;9.10;99.90;;;;;;4971014;28;20189;-72
2022/05/04 01:12:33;;;;;;;8.10;4.80;;;9.10;99.90;;;;;;4971004;28;20228;-73
2022/05/04 01:15:00;;;;;;;9.30;4.43;;;9.00;99.90;;;;;;4969791;28;20174;-72
2022/05/04 01:17:27;;;;;;;7.80;4.53;;;9.00;99.90;;;;;;4971458;28;20253;-72
2022/05/04 01:19:55;;;;;;;9.40;4.40;;;9.00;99.90;;;;;;4973131;28;20201;-73
2022/05/04 01:22:24;;;;;;;11.60;4.50;;;9.00;99.90;;;;;;4974350;28;20181;-73
2022/05/04 01:24:50;;;;;;;9.53;4.73;;;9.00;99.90;;;;;;4973306;28;20600;-73
2022/05/04 01:27:15;;;;;;;10.17;5.07;;;9.00;99.90;;;;;;4974330;28;20178;-72
2022/05/04 01:29:41;;;;;;;11.07;4.67;;;9.00;99.90;;;;;;4974301;28;20264;-73
2022/05/04 01:32:07;;;;;;;7.03;4.27;;;9.00;99.90;;;;;;4974315;28;20182;-73
2022/05/04 01:34:33;;;;;;;8.17;4.37;;;8.90;99.90;;;;;;4974130;28;20206;-73
2022/05/04 01:36:58;;;;;;;8.00;4.07;;;9.00;99.90;;;;;;4974119;28;20295;-73
2022/05/04 01:39:24;;;;;;;8.30;4.40;;;9.00;99.90;;;;;;4972769;28;20217;-73
2022/05/04 01:42:13;;;;;;;9.40;5.07;;;9.00;99.90;;;;;;4974028;28;20179;-73
2022/05/04 01:44:40;;;;;;;9.40;5.30;;;9.00;99.90;;;;;;4974665;28;20163;-73
2022/05/04 01:47:09;;;;;;;8.20;5.03;;;9.00;99.90;;;;;;4974145;28;20253;-73
2022/05/04 01:49:35;;;;;;;13.57;5.37;;;9.00;99.90;;;;;;4973887;28;20210;-73
2022/05/04 01:52:01;;;;;;;7.57;4.50;;;8.90;99.90;;;;;;4974029;28;20174;-73
2022/05/04 01:54:27;;;;;;;7.63;4.40;;;8.90;99.90;;;;;;4973928;28;20652;-73
2022/05/04 01:56:53;;;;;;;9.17;5.13;;;8.90;99.90;;;;;;4972855;28;20178;-72
2022/05/04 01:59:18;;;;;;;9.40;4.27;;;8.90;99.90;;;;;;4972525;28;20190;-73
2022/05/04 02:01:44;;;;;;;8.83;4.53;;;8.90;99.90;;;;;;4974142;28;20179;-73
2022/05/04 02:04:10;;;;;;;10.93;4.87;;;8.90;99.90;;;;;;4973852;28;20549;-72
2022/05/04 02:06:37;;;;;;;8.73;4.70;;;8.90;99.90;;;;;;4972552;28;20182;-73
2022/05/04 02:09:04;;;;;;;9.67;4.47;;;8.80;99.90;;;;;;4973896;28;20217;-72
2022/05/04 02:11:32;;;;;;;8.33;4.67;;;8.80;99.90;;;;;;4973864;28;20214;-73
2022/05/04 02:13:58;;;;;;;12.30;4.23;;;8.80;99.90;;;;;;4972376;28;20705;-72
2022/05/04 02:16:23;;;;;;;7.90;4.67;;;8.80;99.90;;;;;;4972374;28;20274;-72
2022/05/04 02:18:49;;;;;;;10.67;5.10;;;8.80;99.90;;;;;;4972481;28;20649;-73
2022/05/04 02:21:15;;;;;;;10.00;4.83;;;8.70;99.90;;;;;;4973524;28;20549;-73
2022/05/04 02:23:40;;;;;;;8.60;4.97;;;8.70;99.90;;;;;;4973488;28;20648;-73
2022/05/04 02:26:06;;;;;;;8.87;5.30;;;8.70;99.90;;;;;;4973411;28;20174;-72
2022/05/04 02:28:31;;;;;;;6.07;4.40;;;8.70;99.90;;;;;;4973225;28;20700;-73
2022/05/04 02:30:57;;;;;;;12.40;5.37;;;8.70;99.90;;;;;;4973086;28;20182;-72
2022/05/04 02:33:22;;;;;;;8.47;5.57;;;8.60;99.90;;;;;;4973306;28;20171;-73
2022/05/04 02:38:32;;;;;;;13.57;5.50;;;8.60;99.90;;;;;;4973509;28;20237;-73
2022/05/04 02:40:57;;;;;;;10.70;5.37;;;8.50;99.90;;;;;;5073327;22;20195;-96
2022/05/04 02:43:25;;;;;;;11.97;5.13;;;9.20;99.90;;;;;;5065130;28;20132;-96
2022/05/04 02:45:54;;;;;;;11.80;4.90;;;9.00;99.90;;;;;;5082094;28;20135;-96
2022/05/04 02:48:19;;;;;;;11.83;5.47;;;8.50;99.90;;;;;;5064916;28;20163;-96
2022/05/04 02:50:45;;;;;;;10.10;5.13;;;8.20;99.90;;;;;;5064810;28;20135;-96
2022/05/04 02:53:10;;;;;;;9.10;5.73;;;8.40;99.90;;;;;;5064888;28;20208;-96
2022/05/04 02:55:36;;;;;;;9.53;5.57;;;8.50;99.90;;;;;;5064751;28;20223;-96
2022/05/04 02:58:02;;;;;;;8.53;5.37;;;8.40;99.90;;;;;;5081868;28;20140;-96
2022/05/04 03:00:28;;;;;;;9.27;5.37;;;8.60;99.90;;;;;;5064738;28;20135;-96
2022/05/04 03:02:54;;;;;;;7.93;6.13;;;8.30;99.90;;;;;;5064472;28;20147;-96
2022/05/04 03:05:20;;;;;;;9.40;5.23;;;8.50;99.90;;;;;;5081699;28;20182;-96
2022/05/04 03:07:46;;;;;;;12.17;6.00;;;8.00;99.90;;;;;;5064538;28;20140;-96
2022/05/04 03:10:13;;;;;;;11.50;6.03;;;8.30;99.90;;;;;;5064565;28;20136;-96
2022/05/04 03:12:39;;;;;;;11.70;6.20;;;8.20;99.90;;;;;;5064416;28;20143;-96
2022/05/04 03:15:06;;;;;;;11.20;5.63;;;8.20;99.90;;;;;;5064418;28;20136;-96
2022/05/04 03:17:32;;;;;;;12.50;5.27;;;8.20;99.90;;;;;;5064392;28;20139;-96
2022/05/04 03:19:58;;;;;;;9.50;5.93;;;8.20;99.90;;;;;;5064396;28;20147;-96
2022/05/04 03:22:25;;;;;;;9.63;5.93;;;8.70;99.90;;;;;;5064177;28;20136;-96
2022/05/04 03:24:51;;;;;;;12.00;5.80;;;8.10;99.90;;;;;;5081362;28;20143;-95
2022/05/04 03:27:16;;;;;;;8.93;5.13;;;8.10;99.90;;;;;;5064131;28;20132;-96
2022/05/04 03:29:43;;;;;;;10.23;6.03;;;8.20;99.90;;;;;;5064048;28;20183;-96
2022/05/04 03:32:09;;;;;;;9.07;5.73;;;8.00;99.90;;;;;;5064008;28;20144;-96
2022/05/04 03:34:34;;;;;;;13.87;5.90;;;8.00;99.90;;;;;;5064016;28;20136;-96
2022/05/04 03:37:01;;;;;;;11.87;5.77;;;8.00;99.90;;;;;;5064057;28;20135;-96
2022/05/04 03:39:27;;;;;;;10.83;6.33;;;8.00;99.90;;;;;;5063860;28;20143;-96
2022/05/04 03:41:53;;;;;;;14.73;5.87;;;8.00;99.90;;;;;;5080079;28;20159;-96
2022/05/04 03:44:19;;;;;;;12.63;6.63;;;8.40;99.90;;;;;;5063898;28;20166;-96
2022/05/04 03:46:47;;;;;;;15.40;6.33;;;8.50;99.90;;;;;;5063818;28;20196;-96
2022/05/04 03:49:14;;;;;;;10.63;5.67;;;8.30;99.90;;;;;;5063692;28;20178;-96
2022/05/04 03:51:40;;;;;;;10.90;5.57;;;7.90;99.90;;;;;;5063644;28;20135;-96
2022/05/04 03:54:06;;;;;;;11.57;6.00;;;7.90;99.90;;;;;;5063681;28;20139;-96
2022/05/04 03:56:37;;;;;;;11.10;5.90;;;7.90;99.90;;;;;;5063548;28;20231;-96
2022/05/04 03:59:04;;;;;;;10.33;5.70;;;7.90;99.90;;;;;;5063637;28;20164;-96
2022/05/04 04:01:30;;;;;;;13.50;5.53;;;7.90;99.90;;;;;;5063232;28;20144;-96
2022/05/04 04:03:56;;;;;;;12.27;6.13;;;8.00;99.90;;;;;;5063414;28;20147;-96
2022/05/04 04:06:21;;;;;;;12.87;5.83;;;8.30;99.90;;;;;;5063214;28;20143;-96
2022/05/04 04:08:49;;;;;;;12.93;5.57;;;7.80;99.90;;;;;;5062914;28;20158;-96
2022/05/04 04:11:14;;;;;;;15.53;6.80;;;7.80;99.90;;;;;;5071191;28;20144;-95
2022/05/04 04:13:40;;;;;;;12.97;5.97;;;7.70;99.90;;;;;;5071221;28;20207;-95
2022/05/04 04:16:06;;;;;;;13.13;6.47;;;8.20;99.90;;;;;;5079873;28;20198;-95
2022/05/04 04:18:31;;;;;;;10.50;5.97;;;7.70;99.90;;;;;;5078927;28;20161;-95
2022/05/04 04:23:41;;;;;;;10.93;5.97;;;8.30;99.90;;;;;;5080345;28;20150;-95
2022/05/04 04:26:09;;;;;;;11.57;6.60;;;7.80;99.90;;;;;;5080226;28;20207;-96
2022/05/04 04:28:39;;;;;;;11.00;6.37;;;7.70;99.90;;;;;;5079701;28;20169;-96
2022/05/04 04:31:06;;;;;;;13.23;6.03;;;7.70;99.90;;;;;;5079763;28;20148;-96
2022/05/04 04:33:31;;;;;;;12.73;6.50;;;7.80;99.90;;;;;;5079402;28;20190;-96
2022/05/04 04:35:58;;;;;;;14.57;6.60;;;7.70;99.90;;;;;;5078392;28;20159;-96
2022/05/04 04:38:27;;;;;;;14.07;6.47;;;7.70;99.90;;;;;;5078283;28;20187;-96
2022/05/04 04:40:53;;;;;;;12.07;6.03;;;7.50;99.90;;;;;;5078635;28;20175;-96
2022/05/04 04:43:19;;;;;;;14.97;7.17;;;7.70;99.90;;;;;;5078766;28;20209;-96
2022/05/04 04:45:48;;;;;;;16.57;7.00;;;7.40;99.90;;;;;;5078569;28;20207;-96
2022/05/04 04:48:18;;;;;;;17.23;6.50;;;7.70;99.90;;;;;;5078127;28;20178;-96
2022/05/04 04:50:46;;;;;;;14.30;6.50;;;7.80;99.90;;;;;;5078567;28;20168;-96
2022/05/04 04:53:13;;;;;;;11.43;6.13;;;7.80;99.90;;;;;;5081231;28;20156;-96
2022/05/04 04:55:43;;;;;;;17.30;6.80;;;7.80;99.90;;;;;;5085226;28;20183;-96
2022/05/04 04:58:09;;;;;;;12.83;6.87;;;7.80;99.90;;;;;;5084539;28;20167;-94
2022/05/04 05:00:34;;;;;;;12.30;6.33;;;7.50;99.90;;;;;;5083461;28;20170;-94
2022/05/04 05:03:00;;;;;;;12.13;6.70;;;7.80;99.90;;;;;;5082503;28;20207;-94
2022/05/04 05:05:26;;;;;;;13.97;6.50;;;7.80;99.90;;;;;;5080999;28;20190;-94
2022/05/04 05:07:52;;;;;;;15.33;6.33;;;7.80;99.90;;;;;;5080974;28;20186;-94
2022/05/04 05:10:17;;;;;;;12.30;7.20;;;7.80;99.90;;;;;;5081736;28;20251;-94
2022/05/04 05:12:43;;;;;;;13.97;6.80;;;7.90;99.90;;;;;;5081629;28;20199;-94
2022/05/04 05:17:53;;;;;;;15.90;7.03;;;7.90;99.90;;;;;;5082162;28;20202;-94
2022/05/04 05:20:19;;;;;;;14.03;6.63;;;7.80;99.90;;;;;;5078975;28;20175;-94
2022/05/04 05:22:45;;;;;;;14.37;7.20;;;7.80;99.90;;;;;;5077376;28;20221;-93
2022/05/04 05:25:10;;;;;;;16.40;8.03;;;8.00;99.90;;;;;;5077764;28;20183;-94
2022/05/04 05:27:36;;;;;;;19.27;7.27;;;8.00;99.90;;;;;;5078282;28;20230;-94
2022/05/04 05:30:02;;;;;;;14.53;6.93;;;8.00;99.90;;;;;;5081632;28;20195;-94
2022/05/04 05:32:28;;;;;;;15.43;7.50;;;8.00;99.90;;;;;;5084065;28;20180;-94
2022/05/04 05:34:56;;;;;;;13.77;6.73;;;8.00;99.90;;;;;;5083951;28;20188;-93
2022/05/04 05:37:22;;;;;;;13.80;6.87;;;8.10;99.90;;;;;;5084086;28;20293;-93
2022/05/04 05:39:48;;;;;;;18.20;8.10;;;7.90;99.90;;;;;;5084244;28;20175;-92
2022/05/04 05:42:14;;;;;;;18.33;7.60;;;8.10;99.90;;;;;;5076843;28;20206;-93
2022/05/04 05:44:40;;;;;;;15.37;7.80;;;8.20;99.90;;;;;;5081092;22;20688;-71
2022/05/04 05:47:06;;;;;;;14.50;7.93;;;8.10;99.90;;;;;;5057949;28;20168;-71
2022/05/04 05:49:32;;;;;;;15.77;8.10;;;8.20;99.90;;;;;;5062431;28;20203;-71
2022/05/04 05:51:58;;;;;;;17.70;8.27;;;8.30;99.90;;;;;;5079145;28;20210;-71
2022/05/04 05:54:23;;;;;;;13.57;7.03;;;8.30;99.90;;;;;;5079033;28;20171;-71
2022/05/04 05:56:49;;;;;;;16.10;7.87;;;8.30;99.90;;;;;;5079028;28;20614;-71
2022/05/04 05:59:15;;;;;;;15.23;7.80;;;8.40;99.90;;;;;;5077643;28;20170;-71
2022/05/04 06:01:41;;;;;;;22.97;7.90;;;8.50;99.90;;;;;;5078851;28;20245;-71
2022/05/04 06:04:07;;;;;;;15.73;7.53;;;8.50;99.90;;;;;;5077623;28;20220;-71
2022/05/04 06:06:33;;;;;;;15.33;8.00;;;8.50;90.30;;;;;;5075607;28;20174;-71
2022/05/04 06:08:58;;;;;;;14.13;8.13;;;8.60;60.80;;;;;;5075582;28;20195;-72
2022/05/04 06:11:24;;;;;;;18.63;7.60;;;8.70;48.30;;;;;;5074393;28;20175;-72
2022/05/04 06:13:53;;;;;;;24.57;8.30;;;8.60;1.00;;;;;;5075660;28;20235;-71
2022/05/04 06:16:19;;;;;;;18.03;7.33;;;8.70;1.00;;;;;;5074373;28;20262;-71
2022/05/04 06:18:45;;;;;;;17.80;8.23;;;8.70;1.00;;;;;;5075840;28;20650;-71
2022/05/04 06:21:10;;;;;;;16.43;7.13;;;8.80;1.00;;;;;;5075473;28;20237;-71
2022/05/04 06:23:36;;;;;;;20.70;8.20;;;8.80;1.00;;;;;;5074206;28;20224;-72
2022/05/04 06:26:02;;;;;;;16.40;8.50;;;8.80;1.00;;;;;;5075643;28;20171;-71
2022/05/04 06:28:27;;;;;;;16.90;8.03;;;8.90;1.00;;;;;;5075248;28;20190;-72
2022/05/04 06:36:21;;;;;;;16.90;8.50;;;9.10;99.90;;;;;;5075588;28;20289;-71
2022/05/04 06:38:47;;;;;;;19.50;7.97;;;9.20;99.90;;;;;;5075456;28;20204;-71
2022/05/04 06:41:14;;;;;;;20.07;8.07;;;9.20;99.90;;;;;;5074025;28;20660;-71
2022/05/04 06:43:40;;;;;;;15.07;8.07;;;9.30;99.90;;;;;;5075034;28;20190;-71
2022/05/04 06:46:05;;;;;;;16.60;8.50;;;9.30;1.00;;;;;;5075616;28;20531;-71
2022/05/04 06:48:31;;;;;;;17.23;8.10;;;9.40;1.00;;;;;;5074896;28;20194;-72
2022/05/04 06:50:56;;;;;;;17.93;9.37;;;9.40;99.90;;;;;;5074866;28;20190;-71
2022/05/04 06:53:22;;;;;;;19.27;8.00;;;9.50;99.90;;;;;;5074894;28;20163;-71
2022/05/04 06:55:48;;;;;;;16.40;8.40;;;9.50;99.90;;;;;;5075120;28;20174;-71
2022/05/04 06:58:13;;;;;;;14.83;7.90;;;9.60;99.90;;;;;;5074773;28;20229;-71
2022/05/04 07:00:39;;;;;;;21.13;9.03;;;9.60;1.00;;;;;;5074653;28;20680;-72
2022/05/04 07:03:04;;;;;;;15.67;7.73;;;9.70;1.00;;;;;;5074706;28;20203;-71
2022/05/04 07:05:30;;;;;;;15.33;8.37;;;9.70;99.90;;;;;;5074653;28;20183;-72
2022/05/04 07:07:55;;;;;;;14.00;8.50;;;9.70;1.00;;;;;;5074498;28;20179;-71
2022/05/04 07:10:21;;;;;;;15.30;8.63;;;9.80;99.90;;;;;;5074560;28;20270;-72
2022/05/04 07:12:47;;;;;;;17.90;8.20;;;9.90;1.00;;;;;;5074504;28;20178;-71
2022/05/04 07:15:13;;;;;;;18.23;8.90;;;9.90;1.00;;;;;;5073124;28;20334;-71
2022/05/04 07:17:38;;;;;;;18.50;9.20;;;10.00;99.90;;;;;;5073035;28;20710;-71
2022/05/04 07:20:04;;;;;;;14.97;8.37;;;10.00;99.90;;;;;;5074288;28;20211;-72
2022/05/04 07:22:31;;;;;;;18.30;8.83;;;10.10;1.00;;;;;;5074558;28;20207;-71
2022/05/04 07:24:56;;;;;;;16.77;8.40;;;10.10;1.00;;;;;;5074313;28;20252;-71
2022/05/04 07:27:22;;;;;;;17.30;9.57;;;10.20;99.90;;;;;;5074255;28;20674;-72
2022/05/04 07:29:47;;;;;;;20.57;9.60;;;10.30;1.00;;;;;;5074047;28;20209;-71
2022/05/04 07:32:13;;;;;;;16.60;8.53;;;10.40;99.90;;;;;;5074131;28;20254;-71
2022/05/04 07:34:40;;;;;;;20.07;8.97;;;10.50;8.30;;;;;;5074102;28;20159;-71
2022/05/04 07:37:06;;;;;;;19.43;8.77;;;10.50;1.00;;;;;;5072797;28;20174;-72
2022/05/04 07:42:24;;;;;;;19.00;9.00;;;10.80;99.90;;;;;;5074074;28;20170;-72
2022/05/04 07:45:00;;;;;;;18.40;9.37;;;10.90;99.90;;;;;;5073959;28;20226;-71
2022/05/04 07:47:28;;;;;;;17.73;9.27;;;11.00;99.90;;;;;;5074172;28;20159;-72
2022/05/04 07:49:54;;;;;;;20.50;9.77;;;11.00;1.00;;;;;;5073646;28;20206;-71
2022/05/04 07:52:19;;;;;;;19.00;9.77;;;11.10;1.00;;;;;;5074024;28;20171;-72
2022/05/04 07:54:45;;;;;;;22.23;8.97;;;11.20;1.00;;;;;;5073728;28;20171;-71
2022/05/04 07:57:11;;;;;;;16.33;9.17;;;11.20;50.90;;;;;;5072334;28;20178;-72
2022/05/04 07:59:36;;;;;;;16.37;8.70;;;11.30;1.00;;;;;;5073990;28;20191;-72
2022/05/04 08:04:47;;;;;;;17.43;8.83;;;11.40;99.90;;;;;;5073576;28;20166;-72
2022/05/04 08:07:13;;;;;;;20.27;10.10;;;11.40;1.00;;;;;;5072182;28;20175;-71
2022/05/04 08:09:39;;;;;;;19.93;9.17;;;11.40;99.90;;;;;;5073517;28;20798;-72
2022/05/04 08:12:06;;;;;;;16.00;8.83;;;11.50;1.00;;;;;;5073394;28;20167;-72
2022/05/04 08:14:33;;;;;;;18.87;9.27;;;11.60;1.00;;;;;;5072131;28;20175;-71
2022/05/04 08:16:58;;;;;;;22.50;9.33;;;11.50;99.90;;;;;;5072058;28;20258;-71
2022/05/04 08:19:24;;;;;;;18.73;8.83;;;11.60;1.00;;;;;;5071938;28;20230;-71
2022/05/04 08:21:50;;;;;;;19.53;8.87;;;11.60;1.00;;;;;;5073329;28;20250;-71
2022/05/04 08:24:15;;;;;;;18.67;9.23;;;11.70;99.90;;;;;;5073780;28;20175;-72
2022/05/04 08:26:42;;;;;;;20.13;10.17;;;11.70;1.00;;;;;;5073229;28;20171;-71
2022/05/04 08:29:07;;;;;;;16.37;8.63;;;11.90;1.00;;;;;;5071230;28;20198;-71
2022/05/04 08:31:33;;;;;;;18.20;8.77;;;11.90;99.90;;;;;;5073152;28;20174;-71
2022/05/04 08:33:59;;;;;;;18.43;8.40;;;12.00;99.90;;;;;;5073103;28;20193;-72
2022/05/04 08:36:24;;;;;;;18.77;9.00;;;12.10;99.90;;;;;;5071809;28;20174;-71
2022/05/04 08:38:50;;;;;;;18.80;9.30;;;12.20;1.00;;;;;;5071840;28;20545;-71
2022/05/04 08:41:15;;;;;;;17.97;8.13;;;12.30;1.00;;;;;;5071967;28;20194;-72
2022/05/04 08:43:43;;;;;;;19.17;9.17;;;12.30;99.90;;;;;;5071671;28;20193;-71
2022/05/04 08:46:13;;;;;;;19.67;9.50;;;12.40;99.90;;;;;;5085690;22;20223;-76
2022/05/04 08:48:40;;;;;;;15.17;9.57;;;12.40;1.00;;;;;;5052673;28;20241;-76
2022/05/04 08:51:07;;;;;;;17.77;10.00;;;12.60;1.00;;;;;;5034526;28;20591;-76
2022/05/04 08:53:34;;;;;;;17.83;8.83;;;12.60;12.30;;;;;;5034976;28;20171;-76
2022/05/04 08:56:00;;;;;;;19.60;9.50;;;12.70;99.90;;;;;;5052800;28;20195;-75
2022/05/04 08:58:26;;;;;;;22.40;10.77;;;12.80;99.90;;;;;;5053397;28;20168;-75
2022/05/04 09:00:52;;;;;;;24.60;10.40;;;12.90;1.00;;;;;;5052780;28;20297;-76
2022/05/04 09:03:21;;;;;;;22.20;10.57;;;12.90;99.90;;;;;;5052770;28;20179;-75
2022/05/04 09:05:48;;;;;;;20.83;11.07;;;13.00;1.00;;;;;;5053049;28;20264;-75
2022/05/04 09:08:14;;;;;;;17.67;10.60;;;13.10;1.00;;;;;;5052771;28;20191;-76
2022/05/04 09:10:44;;;;;;;16.33;10.17;;;13.20;99.90;;;;;;5034906;28;20683;-76
2022/05/04 09:13:11;;;;;;;18.30;9.30;;;13.20;99.90;;;;;;5053011;28;20489;-75
2022/05/04 09:15:40;;;;;;;19.33;9.97;;;13.30;99.90;;;;;;5052651;28;20193;-75
2022/05/04 09:18:08;;;;;;;21.30;10.30;;;13.40;99.90;;;;;;5034845;28;20183;-75
2022/05/04 09:20:55;;;;;;;17.30;9.87;;;13.50;99.90;;;;;;5034726;28;20179;-75
2022/05/04 09:23:25;;;;;;;16.63;9.80;;;13.60;1.00;;;;;;5052641;28;20148;-76
2022/05/04 09:25:56;;;;;;;23.23;10.17;;;13.70;1.00;;;;;;5052843;28;20191;-76
2022/05/04 09:28:24;;;;;;;21.70;10.20;;;13.70;1.00;;;;;;5034589;28;20187;-76
2022/05/04 09:30:55;;;;;;;30.37;11.17;;;13.70;99.90;;;;;;5034709;28;20258;-75
2022/05/04 09:33:30;;;;;;;18.90;10.23;;;13.80;1.00;;;;;;5052507;28;20251;-76
2022/05/04 09:35:58;;;;;;;18.53;9.70;;;13.90;1.00;;;;;;5052574;28;20233;-76
2022/05/04 09:46:52;;;;;;;23.60;9.87;;;14.10;99.90;;;;;;5056097;28;20718;-76
2022/05/04 09:49:20;;;;;;;15.10;9.40;;;14.20;99.90;;;;;;5055998;28;20215;-75
2022/05/04 09:51:49;;;;;;;18.07;9.50;;;14.20;12.10;;;;;;5056097;28;20715;-75
2022/05/04 09:54:27;;;;;;;17.30;9.23;;;14.20;1.00;;;;;;5038233;28;20202;-76
2022/05/04 09:57:03;;;;;;;20.10;9.27;;;14.20;39.80;;;;;;5056039;28;20240;-76
2022/05/04 09:59:31;;;;;;;16.40;9.03;;;14.30;43.90;;;;;;5056352;28;20168;-76
2022/05/04 10:01:59;;;;;;;19.07;9.60;;;14.30;58.20;;;;;;5055920;28;20645;-75
2022/05/04 10:04:26;;;;;;;17.57;10.00;;;14.30;99.90;;;;;;5055836;28;20182;-75
2022/05/04 10:06:53;;;;;;;17.60;9.57;;;14.40;1.00;;;;;;5055685;28;20191;-75
2022/05/04 10:19:30;;;;;;;17.43;9.60;;;14.40;1.00;;;;;;5055634;28;20167;-75
2022/05/04 10:21:59;;;;;;;16.13;9.40;;;14.50;1.00;;;;;;5055844;28;20211;-76
2022/05/04 10:24:30;;;;;;;19.30;9.90;;;14.50;99.90;;;;;;5037618;28;20175;-75
2022/05/04 10:40:24;;;;;;;19.73;8.60;;;14.80;1.00;;;;;;5055648;28;20669;-75
2022/05/04 10:42:55;;;;;;;12.57;8.23;;;14.90;1.00;;;;;;5037339;28;20207;-75
2022/05/04 10:45:24;;;;;;;14.77;8.73;;;14.90;99.90;;;;;;5056154;28;20570;-75
2022/05/04 10:47:49;;;;;;;18.50;10.27;;;15.00;99.90;;;;;;5056023;28;20175;-75
2022/05/04 10:50:18;;;;;;;14.50;9.30;;;15.10;95.40;;;;;;5055493;28;20199;-75
2022/05/04 10:52:47;;;;;;;18.17;9.00;;;15.00;1.00;;;;;;5056568;28;20179;-74
2022/05/04 10:55:14;;;;;;;17.23;8.90;;;15.10;1.00;;;;;;5037573;28;20203;-75
2022/05/04 10:57:41;;;;;;;16.60;8.77;;;15.10;1.00;;;;;;5054876;28;20180;-75
2022/05/04 11:00:08;;;;;;;15.23;8.13;;;15.00;1.00;;;;;;5036969;28;20175;-76
2022/05/04 11:02:33;;;;;;;12.90;8.77;;;15.10;1.00;;;;;;5054759;28;20172;-75
2022/05/04 11:05:11;;;;;;;13.63;8.03;;;15.20;1.00;;;;;;5036767;28;20203;-75
2022/05/04 11:07:37;;;;;;;15.23;9.07;;;15.30;1.00;;;;;;5054804;28;20155;-75
2022/05/04 11:10:03;;;;;;;14.30;8.67;;;15.30;1.00;;;;;;5054598;28;20194;-75
2022/05/04 11:12:28;;;;;;;13.13;7.80;;;15.40;1.00;;;;;;5054566;28;20172;-75
2022/05/04 11:14:54;;;;;;;14.13;7.70;;;15.40;1.00;;;;;;5054677;28;20175;-75
2022/05/04 11:17:19;;;;;;;17.50;7.73;;;15.40;99.90;;;;;;5054794;28;20552;-75
2022/05/04 11:19:47;;;;;;;17.03;8.63;;;15.50;1.00;;;;;;5054431;28;20667;-75
2022/05/04 11:22:14;;;;;;;14.27;7.47;;;15.60;1.00;;;;;;5036540;28;20182;-76
2022/05/04 11:24:40;;;;;;;14.10;7.23;;;15.60;1.00;;;;;;5054708;28;20180;-75
2022/05/04 11:27:06;;;;;;;17.00;8.97;;;15.70;99.90;;;;;;5036620;28;20191;-76
2022/05/04 11:29:33;;;;;;;21.47;8.10;;;15.70;99.90;;;;;;5054228;28;20233;-75
2022/05/04 11:32:01;;;;;;;14.87;7.30;;;15.70;99.90;;;;;;5054075;28;20167;-75
2022/05/04 11:34:33;;;;;;;10.33;7.23;;;15.70;99.90;;;;;;5053993;28;20244;-75
2022/05/04 11:37:02;;;;;;;12.67;7.33;;;15.80;99.90;;;;;;5036163;28;20192;-75
2022/05/04 11:39:30;;;;;;;15.77;7.73;;;15.90;99.90;;;;;;5036224;28;20186;-75
2022/05/04 11:41:59;;;;;;;12.40;6.93;;;15.80;99.90;;;;;;5054002;28;20203;-75
2022/05/04 11:44:26;;;;;;;17.40;7.17;;;15.90;99.90;;;;;;5053888;28;20171;-75
2022/05/04 11:46:53;;;;;;;13.60;7.37;;;15.90;99.90;;;;;;5053788;28;20211;-76
2022/05/04 11:49:21;;;;;;;10.33;6.10;;;15.90;46.50;;;;;;5035873;28;20203;-75
2022/05/04 11:51:47;;;;;;;15.33;7.80;;;15.80;45.00;;;;;;5053830;28;20199;-75
2022/05/04 11:54:13;;;;;;;22.40;7.30;;;15.90;17.70;;;;;;5054219;28;20566;-75
2022/05/04 11:56:38;;;;;;;10.50;6.27;;;16.00;99.90;;;;;;5053640;28;20262;-75
2022/05/04 11:59:05;;;;;;;8.13;5.63;;;16.10;53.50;;;;;;5035820;28;20234;-75
2022/05/04 12:01:30;;;;;;;10.13;5.33;;;16.10;99.90;;;;;;5035817;28;20179;-75
2022/05/04 12:03:58;;;;;;;13.63;6.70;;;16.20;31.30;;;;;;5052834;28;20190;-75
2022/05/04 12:06:23;;;;;;;11.77;6.83;;;16.30;1.00;;;;;;5053479;28;20231;-75
2022/05/04 12:08:49;;;;;;;11.43;6.07;;;16.30;1.00;;;;;;5035625;28;20234;-75
2022/05/04 12:11:16;;;;;;;10.00;5.13;;;16.30;1.00;;;;;;5053699;28;20696;-75
2022/05/04 12:13:42;;;;;;;9.43;5.63;;;16.40;1.00;;;;;;5035527;28;20225;-75
2022/05/04 12:16:10;;;;;;;16.90;5.90;;;16.30;1.00;;;;;;5053721;28;20225;-76
2022/05/04 12:18:38;;;;;;;10.87;5.57;;;16.50;1.00;;;;;;5036277;28;20178;-77
2022/05/04 12:21:11;;;;;;;12.47;5.13;;;16.50;1.00;;;;;;5035606;28;20179;-77
2022/05/04 12:23:40;;;;;;;8.20;4.37;;;16.80;1.00;;;;;;5035797;28;20176;-77
2022/05/04 12:26:06;;;;;;;6.77;4.20;;;17.00;1.00;;;;;;5035387;28;20195;-76
2022/05/04 12:28:33;;;;;;;11.77;5.63;;;16.90;1.00;;;;;;5053136;28;20195;-76
2022/05/04 12:33:43;;;;;;;10.07;5.17;;;16.80;1.00;;;;;;5053255;28;20741;-76
2022/05/04 12:36:11;;;;;;;8.27;4.23;;;16.60;1.00;;;;;;5035347;28;20609;-76
2022/05/04 12:38:38;;;;;;;10.30;4.47;;;16.80;1.00;;;;;;5035268;28;20186;-76
2022/05/04 12:41:06;;;;;;;14.40;4.30;;;16.90;1.00;;;;;;5053142;28;20205;-76
2022/05/04 12:43:35;;;;;;;8.50;3.90;;;16.90;1.00;;;;;;5053267;28;20167;-77
2022/05/04 12:46:02;;;;;;;11.23;5.13;;;17.00;1.00;;;;;;5052904;28;20207;-76
2022/05/04 12:48:28;;;;;;;11.43;4.80;;;17.10;1.00;;;;;;5034975;28;20584;-76
2022/05/04 12:50:56;;;;;;;15.50;4.67;;;17.10;1.00;;;;;;5052962;28;20186;-75
2022/05/04 12:53:24;;;;;;;11.67;3.70;;;17.20;1.00;;;;;;5053145;28;20634;-76
2022/05/04 12:58:33;;;;;;;6.43;3.77;;;17.30;1.00;;;;;;5053205;28;20167;-76
2022/05/04 13:00:59;;;;;;;10.00;4.30;;;17.40;99.90;;;;;;5034978;28;20183;-76
2022/05/04 13:03:25;;;;;;;9.40;4.43;;;17.40;99.90;;;;;;5034932;28;20270;-76
2022/05/04 13:05:50;;;;;;;10.53;4.10;;;17.40;1.00;;;;;;5052731;28;20201;-76
2022/05/04 13:08:16;;;;;;;8.10;4.60;;;17.50;1.00;;;;;;5052778;28;20262;-76
2022/05/04 13:10:41;;;;;;;10.17;5.33;;;17.50;1.00;;;;;;5052874;28;20175;-76
2022/05/04 13:13:07;;;;;;;10.67;4.93;;;17.50;1.00;;;;;;5053148;28;20171;-76
2022/05/04 13:15:33;;;;;;;12.50;4.80;;;17.50;1.00;;;;;;5056511;28;20244;-76
2022/05/04 13:17:59;;;;;;;13.30;4.90;;;17.60;1.00;;;;;;5039066;28;20219;-76
2022/05/04 13:20:25;;;;;;;12.10;5.20;;;17.60;1.00;;;;;;5038937;28;20175;-76
2022/05/04 13:22:50;;;;;;;12.33;5.07;;;17.70;99.90;;;;;;5056711;28;20213;-76
2022/05/04 13:25:17;;;;;;;8.37;4.00;;;17.80;1.00;;;;;;5056848;28;20221;-76
2022/05/04 13:27:43;;;;;;;8.17;3.43;;;17.90;99.90;;;;;;5056628;28;20168;-76
2022/05/04 13:30:09;;;;;;;8.03;4.47;;;18.00;1.00;;;;;;5056483;28;20230;-76
2022/05/04 13:32:35;;;;;;;8.93;4.57;;;18.20;99.90;;;;;;5056456;28;20250;-76
2022/05/04 13:35:00;;;;;;;8.87;4.73;;;18.10;99.90;;;;;;5056423;28;20282;-76
2022/05/04 13:37:26;;;;;;;10.30;4.77;;;18.00;99.90;;;;;;5056678;28;20545;-76
2022/05/04 13:39:51;;;;;;;11.60;5.60;;;18.00;99.90;;;;;;5056673;28;20554;-76
2022/05/04 13:42:17;;;;;;;8.43;4.90;;;18.00;99.90;;;;;;5056322;28;20175;-77
2022/05/04 13:44:43;;;;;;;8.37;5.00;;;17.90;99.90;;;;;;5056056;28;20176;-75